aviador You're here:

KDTS Decoded Metar

DESTIN in FL, USA
Report Time2017-07-23 00:40:00
UTC Time2017-07-23 00:51:24
Flight Rules mvfr MVFR
Wind220° at 03 kt
W.Decomp.*RWY 14: 0.5 kt HW 3.0 kt RCW
W.Rank220° ranks 25
Current wind is below 220° avg. (5.5)
Visibility9999 m
Phenomena:N/A
Clouds:Broken 025 Hf
Broken 029 Hf
Broken 036 Hf
Expected CloudBase > 3,200 ft AGL from Temp-Dew spread
Ceiling2,500 ft
Temp31°C (ISA +16)
Dew Point23°C (62% RH)
Heat Index35.4°C
QNH1015 hPa
Density Alt2,152 ft
Elevation16 ft
Report Wrong Elevation
Raw Report
KDTS 230040Z AUTO 22003KT 10SM BKN025 BKN029 BKN036 31/23 A2998
RMK AO2 T03110233=

Extra information for KDTS:More info

Metar Taf Metar & Taf Last 4 Metars F.Rules Stats Wind Profile Meteogram Temp Stats Airport Information Weather charts Add Link Nearby VenuesMetar ALERT Operation Metar Decoded Social comments

AIRNAV info for KDTS